createdAt,value
2022-11-16T00:02:33.310Z,83.83
2022-11-16T00:06:41.316Z,83.78
2022-11-16T00:10:49.222Z,83.52
2022-11-16T00:14:57.491Z,83.54
2022-11-16T00:19:07.340Z,83.26
2022-11-16T00:23:15.113Z,83.20
2022-11-16T00:27:22.989Z,83.12
2022-11-16T00:31:30.761Z,83.08
2022-11-16T00:35:42.504Z,83.07
2022-11-16T00:39:50.143Z,83.26
2022-11-16T00:43:58.223Z,83.33
2022-11-16T00:48:06.018Z,83.30
2022-11-16T00:52:14.058Z,83.36
2022-11-16T00:56:22.069Z,83.35
2022-11-16T01:00:31.654Z,83.43
2022-11-16T01:04:39.807Z,83.72
2022-11-16T01:08:48.399Z,83.57
2022-11-16T01:12:56.498Z,83.84
2022-11-16T01:17:04.956Z,84.09
2022-11-16T01:21:12.685Z,84.22
2022-11-16T01:25:21.487Z,84.40
2022-11-16T01:29:30.552Z,84.37
2022-11-16T01:33:38.719Z,84.25
2022-11-16T01:37:45.954Z,84.05
2022-11-16T01:41:55.054Z,84.04
2022-11-16T01:46:02.540Z,84.00
2022-11-16T01:50:17.411Z,83.98
2022-11-16T01:54:26.623Z,84.01
2022-11-16T01:58:35.353Z,84.07
2022-11-16T02:02:43.666Z,84.08
2022-11-16T02:07:01.299Z,84.34
2022-11-16T02:11:32.971Z,84.52
2022-11-16T02:15:44.860Z,84.39
2022-11-16T02:20:08.537Z,84.48
2022-11-16T02:24:45.180Z,84.44
2022-11-16T02:29:06.135Z,84.30
2022-11-16T02:33:16.880Z,84.27
2022-11-16T02:37:26.391Z,84.22
2022-11-16T02:41:36.748Z,84.43
2022-11-16T02:45:47.631Z,84.32
2022-11-16T02:49:59.510Z,84.39
2022-11-16T02:54:13.252Z,84.43
2022-11-16T02:58:24.845Z,84.53
2022-11-16T03:02:41.814Z,84.76
2022-11-16T03:06:51.037Z,84.87
2022-11-16T03:11:19.689Z,84.93
2022-11-16T03:15:27.642Z,84.87
2022-11-16T03:19:41.309Z,85.22
2022-11-16T03:23:49.756Z,84.99
2022-11-16T03:28:01.321Z,85.04
2022-11-16T03:32:17.638Z,85.10
2022-11-16T03:36:27.817Z,85.23
2022-11-16T03:40:37.353Z,85.53
2022-11-16T03:44:45.720Z,85.59
2022-11-16T03:48:59.661Z,85.85
2022-11-16T03:53:07.894Z,86.17
2022-11-16T03:57:18.757Z,86.19
2022-11-16T04:01:26.678Z,86.37
2022-11-16T04:05:51.802Z,86.45
2022-11-16T04:10:16.846Z,86.66
2022-11-16T04:14:44.400Z,86.69
2022-11-16T04:19:10.213Z,86.58
2022-11-16T04:23:36.640Z,86.74
2022-11-16T04:28:02.295Z,86.95
2022-11-16T04:32:28.137Z,86.95
2022-11-16T04:36:53.132Z,87.13
2022-11-16T04:41:00.908Z,87.41
2022-11-16T04:45:27.788Z,87.22
2022-11-16T04:49:35.387Z,87.05
2022-11-16T04:53:42.807Z,87.02
2022-11-16T04:57:50.638Z,86.93
2022-11-16T05:02:12.235Z,86.94
2022-11-16T05:06:20.066Z,86.95
2022-11-16T05:10:27.820Z,86.96
2022-11-16T05:14:38.006Z,86.91
2022-11-16T05:19:06.177Z,86.53
2022-11-16T05:23:27.814Z,86.51
2022-11-16T05:27:35.858Z,86.69
2022-11-16T05:31:44.737Z,86.72
2022-11-16T05:35:54.040Z,86.89
2022-11-16T05:40:01.578Z,86.80
2022-11-16T05:44:10.427Z,86.63
2022-11-16T05:48:18.152Z,86.79
2022-11-16T05:52:25.596Z,86.78
2022-11-16T05:56:35.051Z,86.86
2022-11-16T06:00:44.244Z,86.49
2022-11-16T06:04:52.407Z,86.67
2022-11-16T06:09:00.158Z,86.61
2022-11-16T06:13:08.289Z,86.34
2022-11-16T06:17:16.082Z,86.30
2022-11-16T06:21:25.531Z,86.40
2022-11-16T06:25:33.666Z,86.21
2022-11-16T06:29:41.718Z,86.19
2022-11-16T06:33:49.454Z,86.08
2022-11-16T06:37:57.328Z,86.17
2022-11-16T06:42:05.274Z,86.30
2022-11-16T06:46:12.866Z,86.32
2022-11-16T06:50:21.364Z,86.07
2022-11-16T06:54:28.977Z,85.96
2022-11-16T06:58:37.000Z,85.91
2022-11-16T07:02:44.588Z,85.84
2022-11-16T07:06:52.669Z,86.08
2022-11-16T07:11:05.136Z,85.90
2022-11-16T07:15:13.739Z,85.87
2022-11-16T07:19:21.000Z,85.77
2022-11-16T07:23:29.120Z,85.80
2022-11-16T07:27:36.771Z,85.79
2022-11-16T07:31:44.935Z,85.95
2022-11-16T07:35:52.791Z,86.11
2022-11-16T07:40:00.999Z,86.15
2022-11-16T07:44:17.656Z,86.09
2022-11-16T07:48:28.140Z,86.11
2022-11-16T07:52:46.611Z,86.09
2022-11-16T07:57:00.293Z,86.09
2022-11-16T08:01:12.594Z,86.16
2022-11-16T08:05:24.338Z,86.46
2022-11-16T08:09:39.719Z,86.22
2022-11-16T08:13:52.293Z,86.23
2022-11-16T08:18:03.534Z,86.18
2022-11-16T08:22:13.135Z,86.12
2022-11-16T08:26:25.567Z,86.21
2022-11-16T08:30:39.393Z,86.17
2022-11-16T08:34:46.646Z,86.18
2022-11-16T08:38:54.537Z,86.07
2022-11-16T08:43:06.085Z,86.23
2022-11-16T08:47:16.386Z,86.05
2022-11-16T08:51:28.686Z,86.39
2022-11-16T08:55:36.663Z,86.26
2022-11-16T08:59:47.715Z,86.27
2022-11-16T09:04:07.951Z,86.26
2022-11-16T09:08:21.917Z,86.33
2022-11-16T09:12:36.456Z,86.29
2022-11-16T09:16:44.313Z,86.29
2022-11-16T09:20:58.293Z,86.33
2022-11-16T09:25:11.228Z,86.20
2022-11-16T09:29:22.856Z,86.33
2022-11-16T09:33:37.366Z,86.36
2022-11-16T09:37:52.538Z,86.37
2022-11-16T09:42:19.770Z,86.34
2022-11-16T09:46:31.133Z,86.38
2022-11-16T09:50:45.716Z,86.59
2022-11-16T09:54:54.701Z,86.83
2022-11-16T09:59:07.396Z,86.90
2022-11-16T10:03:15.863Z,87.03
2022-11-16T10:07:26.924Z,87.21
2022-11-16T10:11:48.520Z,87.39
2022-11-16T10:16:04.383Z,87.28
2022-11-16T10:20:27.627Z,87.39
2022-11-16T10:24:47.590Z,87.44
2022-11-16T10:29:05.295Z,87.45
2022-11-16T10:33:18.646Z,87.40
2022-11-16T10:37:29.565Z,87.61
2022-11-16T10:41:41.510Z,87.61
2022-11-16T10:45:53.415Z,87.66
2022-11-16T10:50:03.706Z,87.38
2022-11-16T10:54:17.784Z,87.31
2022-11-16T10:58:25.281Z,87.21
2022-11-16T11:02:35.705Z,87.32
2022-11-16T11:06:43.603Z,87.16
2022-11-16T11:11:03.430Z,87.21
2022-11-16T11:15:27.062Z,87.25
2022-11-16T11:19:35.008Z,87.26
2022-11-16T11:23:45.850Z,87.31
2022-11-16T11:27:54.635Z,87.25
2022-11-16T11:32:09.960Z,87.12
2022-11-16T11:36:22.175Z,87.13
2022-11-16T11:40:30.727Z,86.95
2022-11-16T11:44:50.027Z,86.94
2022-11-16T11:49:02.579Z,86.86
2022-11-16T11:53:15.885Z,86.83
2022-11-16T11:57:25.829Z,86.81
2022-11-16T12:02:00.621Z,86.71
2022-11-16T12:06:13.579Z,86.60
2022-11-16T12:10:27.151Z,86.76
2022-11-16T12:14:56.671Z,86.88
2022-11-16T12:19:32.406Z,87.05
2022-11-16T12:23:54.269Z,87.01
2022-11-16T12:28:15.487Z,87.03
2022-11-16T12:32:40.347Z,86.75
2022-11-16T12:36:56.065Z,86.73
2022-11-16T12:41:15.422Z,86.94
2022-11-16T12:45:46.474Z,87.14
2022-11-16T12:50:09.484Z,87.00
2022-11-16T12:54:30.646Z,87.03
2022-11-16T12:58:52.842Z,86.90
2022-11-16T13:03:13.110Z,86.71
2022-11-16T13:07:24.980Z,86.72
2022-11-16T13:11:34.758Z,86.53
2022-11-16T13:15:46.400Z,86.68
2022-11-16T13:20:15.549Z,86.71
2022-11-16T13:24:37.244Z,86.51
2022-11-16T13:28:50.726Z,86.38
2022-11-16T13:33:12.325Z,86.43
2022-11-16T13:37:44.030Z,86.45
2022-11-16T13:41:53.165Z,86.25
2022-11-16T13:46:03.077Z,86.41
2022-11-16T13:50:21.993Z,86.32
2022-11-16T13:54:45.354Z,86.24
2022-11-16T13:58:56.318Z,86.23
2022-11-16T14:03:28.486Z,86.14
2022-11-16T14:07:40.705Z,86.25
2022-11-16T14:11:49.193Z,86.36
2022-11-16T14:16:44.371Z,86.25
2022-11-16T14:20:59.002Z,86.49
2022-11-16T14:25:14.577Z,86.27
2022-11-16T14:29:34.589Z,86.39
2022-11-16T14:33:42.556Z,86.45
2022-11-16T14:38:00.349Z,86.46
2022-11-16T14:42:18.382Z,86.66
2022-11-16T14:46:32.409Z,86.62
2022-11-16T14:50:41.186Z,86.54
2022-11-16T14:54:54.994Z,86.65
2022-11-16T14:59:04.859Z,86.69
2022-11-16T15:03:15.093Z,86.62
2022-11-16T15:07:23.474Z,86.73
2022-11-16T15:11:46.210Z,86.93
2022-11-16T15:16:11.271Z,86.72
2022-11-16T15:20:22.233Z,86.89
2022-11-16T15:24:32.341Z,87.02
2022-11-16T15:28:48.711Z,86.85
2022-11-16T15:32:58.228Z,87.02
2022-11-16T15:37:05.917Z,86.98
2022-11-16T15:41:13.719Z,86.99
2022-11-16T15:45:25.702Z,86.68
2022-11-16T15:49:35.581Z,86.44
2022-11-16T15:53:44.340Z,86.51
2022-11-16T15:58:02.348Z,86.84
2022-11-16T16:02:20.261Z,87.03
2022-11-16T16:06:48.841Z,86.80
2022-11-16T16:11:06.372Z,87.16
2022-11-16T16:15:36.904Z,86.92
2022-11-16T16:19:46.530Z,86.76
2022-11-16T16:23:57.344Z,86.67
2022-11-16T16:28:05.439Z,86.52
2022-11-16T16:32:26.900Z,86.36
2022-11-16T16:36:35.303Z,86.36
2022-11-16T16:40:46.655Z,86.67
2022-11-16T16:44:54.627Z,86.42
2022-11-16T16:49:02.660Z,86.53
2022-11-16T16:53:13.191Z,86.57
2022-11-16T16:57:21.310Z,86.26
2022-11-16T17:01:29.370Z,86.26
2022-11-16T17:05:38.902Z,86.38
2022-11-16T17:09:46.514Z,86.38
2022-11-16T17:13:54.505Z,86.28
2022-11-16T17:18:03.089Z,86.41
2022-11-16T17:22:11.227Z,86.43
2022-11-16T17:26:20.035Z,86.37
2022-11-16T17:30:29.142Z,86.54
2022-11-16T17:34:38.587Z,86.46
2022-11-16T17:38:47.076Z,86.33
2022-11-16T17:42:54.764Z,86.21
2022-11-16T17:47:02.225Z,86.52
2022-11-16T17:51:09.995Z,86.32
2022-11-16T17:55:18.459Z,86.21
2022-11-16T17:59:29.456Z,86.13
2022-11-16T18:03:40.542Z,85.86
2022-11-16T18:07:48.503Z,85.87
2022-11-16T18:11:56.007Z,86.12
2022-11-16T18:16:08.182Z,86.06
2022-11-16T18:20:16.775Z,85.85
2022-11-16T18:24:24.709Z,85.75
2022-11-16T18:28:34.959Z,85.82
2022-11-16T18:32:42.902Z,85.97
2022-11-16T18:36:52.286Z,85.85
2022-11-16T18:41:19.959Z,85.74
2022-11-16T18:45:28.179Z,85.69
2022-11-16T18:49:35.483Z,85.79
2022-11-16T18:53:43.580Z,85.56
2022-11-16T18:57:50.987Z,85.70
2022-11-16T19:02:00.089Z,85.45
2022-11-16T19:06:09.254Z,85.63
2022-11-16T19:10:17.373Z,85.58
2022-11-16T19:14:25.778Z,85.67
2022-11-16T19:18:33.507Z,85.92
2022-11-16T19:22:41.293Z,85.62
2022-11-16T19:26:48.915Z,85.62
2022-11-16T19:30:56.883Z,85.54
2022-11-16T19:35:04.956Z,85.70
2022-11-16T19:39:12.753Z,85.71
2022-11-16T19:43:22.017Z,85.69
2022-11-16T19:47:29.654Z,85.69
2022-11-16T19:51:37.354Z,85.75
2022-11-16T19:55:46.187Z,86.21
2022-11-16T19:59:53.942Z,86.16
2022-11-16T20:04:03.527Z,86.25
2022-11-16T20:08:13.142Z,85.79
2022-11-16T20:12:20.990Z,86.09
2022-11-16T20:16:36.995Z,86.10
2022-11-16T20:20:46.508Z,86.16
2022-11-16T20:24:54.876Z,86.66
2022-11-16T20:29:03.638Z,86.29
2022-11-16T20:33:11.790Z,86.41
2022-11-16T20:37:20.427Z,86.45
2022-11-16T20:41:29.353Z,86.15
2022-11-16T20:45:36.920Z,86.41
2022-11-16T20:49:44.553Z,86.30
2022-11-16T20:53:53.308Z,86.10
2022-11-16T20:58:01.099Z,86.63
2022-11-16T21:02:10.924Z,86.76
2022-11-16T21:06:19.065Z,87.00
2022-11-16T21:10:27.566Z,87.05
2022-11-16T21:14:35.029Z,87.01
2022-11-16T21:18:43.266Z,87.18
2022-11-16T21:22:52.313Z,86.86
2022-11-16T21:26:59.625Z,86.66
2022-11-16T21:31:08.484Z,86.69
2022-11-16T21:35:15.938Z,86.63
2022-11-16T21:39:23.618Z,86.88
2022-11-16T21:43:34.213Z,86.78
2022-11-16T21:47:43.194Z,86.67
2022-11-16T21:51:50.816Z,86.48
2022-11-16T21:55:58.600Z,86.77
2022-11-16T22:00:08.442Z,86.50
2022-11-16T22:04:33.615Z,86.97
2022-11-16T22:08:41.500Z,86.78
2022-11-16T22:12:49.304Z,86.84
2022-11-16T22:16:56.702Z,86.76
2022-11-16T22:21:05.602Z,86.64
2022-11-16T22:25:14.392Z,86.98
2022-11-16T22:29:22.427Z,87.13
2022-11-16T22:33:30.294Z,87.07
2022-11-16T22:37:38.809Z,86.92
2022-11-16T22:41:46.313Z,87.09
2022-11-16T22:45:57.195Z,87.04
2022-11-16T22:50:05.611Z,86.77
2022-11-16T22:54:15.841Z,86.74
2022-11-16T22:58:23.478Z,86.66
2022-11-16T23:02:31.141Z,86.67
2022-11-16T23:06:39.772Z,86.92
2022-11-16T23:11:02.246Z,86.55
2022-11-16T23:15:31.133Z,86.46
2022-11-16T23:19:56.574Z,86.39
2022-11-16T23:24:21.522Z,86.58
2022-11-16T23:28:29.347Z,86.52
2022-11-16T23:32:36.963Z,86.59
2022-11-16T23:36:44.666Z,86.75
2022-11-16T23:40:52.662Z,86.81
2022-11-16T23:45:00.165Z,86.56
2022-11-16T23:49:08.148Z,86.86
2022-11-16T23:53:16.021Z,86.71
2022-11-16T23:57:23.490Z,86.88
